createdAt,value
2023-04-15T00:01:45.758Z,7.13
2023-04-15T00:04:12.340Z,7.57
2023-04-15T00:06:39.755Z,5.78
2023-04-15T00:09:06.255Z,6.30
2023-04-15T00:11:32.701Z,6.80
2023-04-15T00:13:59.272Z,7.78
2023-04-15T00:16:25.777Z,6.30
2023-04-15T00:18:52.412Z,7.18
2023-04-15T00:21:18.786Z,7.55
2023-04-15T00:23:45.259Z,7.28
2023-04-15T00:26:12.571Z,7.18
2023-04-15T00:28:39.271Z,7.70
2023-04-15T00:31:05.806Z,8.02
2023-04-15T00:33:32.732Z,5.53
2023-04-15T00:35:59.342Z,8.77
2023-04-15T00:38:25.820Z,11.00
2023-04-15T00:40:53.264Z,9.52
2023-04-15T00:43:20.157Z,7.75
2023-04-15T00:45:47.305Z,10.13
2023-04-15T00:48:14.247Z,5.95
2023-04-15T00:50:40.857Z,7.90
2023-04-15T00:53:07.284Z,7.32
2023-04-15T00:55:33.817Z,9.52
2023-04-15T00:58:00.502Z,6.80
2023-04-15T01:00:27.316Z,8.63
2023-04-15T01:02:53.950Z,5.50
2023-04-15T01:05:20.534Z,8.23
2023-04-15T01:07:48.630Z,7.10
2023-04-15T01:10:15.173Z,5.80
2023-04-15T01:12:43.306Z,13.93
2023-04-15T01:15:10.972Z,6.82
2023-04-15T01:17:38.117Z,6.38
2023-04-15T01:20:10.018Z,10.05
2023-04-15T01:22:36.474Z,6.30
2023-04-15T01:25:17.451Z,8.10
2023-04-15T01:27:44.116Z,7.13
2023-04-15T01:30:11.449Z,8.95
2023-04-15T01:32:38.513Z,8.00
2023-04-15T01:35:05.351Z,7.93
2023-04-15T01:37:32.429Z,7.68
2023-04-15T01:39:58.856Z,8.45
2023-04-15T01:42:25.267Z,5.13
2023-04-15T01:44:51.922Z,9.38
2023-04-15T01:47:18.501Z,9.07
2023-04-15T01:49:44.991Z,6.63
2023-04-15T01:52:11.407Z,10.27
2023-04-15T01:54:40.026Z,6.55
2023-04-15T01:57:06.475Z,11.98
2023-04-15T01:59:33.026Z,6.53
2023-04-15T02:02:00.393Z,15.63
2023-04-15T02:04:27.909Z,7.68
2023-04-15T02:06:54.480Z,5.60
2023-04-15T02:09:21.544Z,7.68
2023-04-15T02:11:47.985Z,9.25
2023-04-15T02:14:14.418Z,8.43
2023-04-15T02:16:41.215Z,8.23
2023-04-15T02:19:08.073Z,10.70
2023-04-15T02:21:37.321Z,7.25
2023-04-15T02:24:04.257Z,8.25
2023-04-15T02:26:32.621Z,6.35
2023-04-15T02:28:59.687Z,6.38
2023-04-15T02:31:26.513Z,6.50
2023-04-15T02:33:53.009Z,5.65
2023-04-15T02:36:21.178Z,7.75
2023-04-15T02:38:47.663Z,5.30
2023-04-15T02:41:15.634Z,6.88
2023-04-15T02:43:44.215Z,5.20
2023-04-15T02:46:14.599Z,6.28
2023-04-15T02:48:41.628Z,6.97
2023-04-15T02:51:31.201Z,5.82
2023-04-15T02:53:58.209Z,8.02
2023-04-15T02:56:24.643Z,5.28
2023-04-15T02:58:51.346Z,5.68
2023-04-15T03:01:17.859Z,4.93
2023-04-15T03:03:44.498Z,5.03
2023-04-15T03:06:10.960Z,6.18
2023-04-15T03:08:37.386Z,5.15
2023-04-15T03:11:04.638Z,6.53
2023-04-15T03:13:32.307Z,6.63
2023-04-15T03:16:02.960Z,5.22
2023-04-15T03:18:31.051Z,8.52
2023-04-15T03:21:01.433Z,10.18
2023-04-15T03:23:28.692Z,6.55
2023-04-15T03:25:57.723Z,6.70
2023-04-15T03:28:24.535Z,5.95
2023-04-15T03:30:51.489Z,4.85
2023-04-15T03:33:17.949Z,7.13
2023-04-15T03:35:44.495Z,5.63
2023-04-15T03:38:10.878Z,6.00
2023-04-15T03:40:37.304Z,6.25
2023-04-15T03:43:03.672Z,5.97
2023-04-15T03:45:30.339Z,6.13
2023-04-15T03:48:03.565Z,8.40
2023-04-15T03:50:37.741Z,9.18
2023-04-15T03:53:04.163Z,6.47
2023-04-15T03:55:30.597Z,5.78
2023-04-15T03:57:57.065Z,6.68
2023-04-15T04:00:23.517Z,5.40
2023-04-15T04:02:49.996Z,7.18
2023-04-15T04:05:16.692Z,8.13
2023-04-15T04:07:43.115Z,4.20
2023-04-15T04:10:09.708Z,10.30
2023-04-15T04:12:36.239Z,5.93
2023-04-15T04:15:02.979Z,7.88
2023-04-15T04:17:29.501Z,7.63
2023-04-15T04:19:56.043Z,6.43
2023-04-15T04:22:24.094Z,7.45
2023-04-15T04:24:50.860Z,8.32
2023-04-15T04:27:17.346Z,9.32
2023-04-15T04:29:43.932Z,9.00
2023-04-15T04:32:10.681Z,6.15
2023-04-15T04:34:37.176Z,6.35
2023-04-15T04:37:03.632Z,7.85
2023-04-15T04:39:30.047Z,7.65
2023-04-15T04:41:56.490Z,6.72
2023-04-15T04:44:22.925Z,6.75
2023-04-15T04:46:49.329Z,6.55
2023-04-15T04:49:15.747Z,7.68
2023-04-15T04:51:42.234Z,6.53
2023-04-15T04:54:08.628Z,5.43
2023-04-15T04:56:35.008Z,6.93
2023-04-15T04:59:01.941Z,7.72
2023-04-15T05:01:28.581Z,5.43
2023-04-15T05:03:55.414Z,8.38
2023-04-15T05:06:21.989Z,6.03
2023-04-15T05:08:48.621Z,6.85
2023-04-15T05:11:15.000Z,9.32
2023-04-15T05:13:41.390Z,6.95
2023-04-15T05:16:08.303Z,7.90
2023-04-15T05:18:35.040Z,5.57
2023-04-15T05:21:02.588Z,8.23
2023-04-15T05:23:29.127Z,7.95
2023-04-15T05:25:55.596Z,9.55
2023-04-15T05:28:22.066Z,8.25
2023-04-15T05:30:48.809Z,7.93
2023-04-15T05:33:15.778Z,6.45
2023-04-15T05:35:42.196Z,5.40
2023-04-15T05:38:08.608Z,6.97
2023-04-15T05:40:35.002Z,8.43
2023-04-15T05:43:01.474Z,5.78
2023-04-15T05:45:27.928Z,7.05
2023-04-15T05:47:54.608Z,10.95
2023-04-15T05:50:22.024Z,6.00
2023-04-15T05:52:48.484Z,5.72
2023-04-15T05:55:14.863Z,7.93
2023-04-15T05:57:41.395Z,6.50
2023-04-15T06:00:08.261Z,7.55
2023-04-15T06:02:37.855Z,6.53
2023-04-15T06:05:09.656Z,6.90
2023-04-15T06:07:37.013Z,9.95
2023-04-15T06:10:05.721Z,8.55
2023-04-15T06:12:32.187Z,7.10
2023-04-15T06:15:00.026Z,8.40
2023-04-15T06:17:26.877Z,8.98
2023-04-15T06:19:56.503Z,7.22
2023-04-15T06:22:23.986Z,8.80
2023-04-15T06:24:51.505Z,7.03
2023-04-15T06:27:17.989Z,8.32
2023-04-15T06:29:44.778Z,6.80
2023-04-15T06:32:12.938Z,9.27
2023-04-15T06:34:39.402Z,8.93
2023-04-15T06:37:06.538Z,8.57
2023-04-15T06:39:33.129Z,7.57
2023-04-15T06:41:59.600Z,10.63
2023-04-15T06:44:26.160Z,11.38
2023-04-15T06:46:52.668Z,11.93
2023-04-15T06:49:19.045Z,9.35
2023-04-15T06:51:45.498Z,9.90
2023-04-15T06:54:11.974Z,8.57
2023-04-15T06:56:38.440Z,11.38
2023-04-15T06:59:04.843Z,8.10
2023-04-15T07:01:31.284Z,7.60
2023-04-15T07:03:57.744Z,9.65
2023-04-15T07:06:24.729Z,7.65
2023-04-15T07:08:51.284Z,7.03
2023-04-15T07:11:18.421Z,11.95
2023-04-15T07:13:44.874Z,7.20
2023-04-15T07:16:11.320Z,7.53
2023-04-15T07:18:37.940Z,9.20
2023-04-15T07:21:04.584Z,9.82
2023-04-15T07:23:31.364Z,7.50
2023-04-15T07:25:57.753Z,10.88
2023-04-15T07:28:24.169Z,7.85
2023-04-15T07:30:50.579Z,9.23
2023-04-15T07:33:17.024Z,8.27
2023-04-15T07:35:43.545Z,6.95
2023-04-15T07:38:09.984Z,8.57
2023-04-15T07:40:36.433Z,6.95
2023-04-15T07:43:03.446Z,7.07
2023-04-15T07:45:30.050Z,6.68
2023-04-15T07:47:56.696Z,7.15
2023-04-15T07:50:23.620Z,7.97
2023-04-15T07:52:51.454Z,7.55
2023-04-15T07:55:19.988Z,7.85
2023-04-15T07:57:47.404Z,6.20
2023-04-15T08:00:14.864Z,6.38
2023-04-15T08:02:42.685Z,6.25
2023-04-15T08:05:10.738Z,5.28
2023-04-15T08:07:38.395Z,5.72
2023-04-15T08:10:05.631Z,5.78
2023-04-15T08:12:32.113Z,5.82
2023-04-15T08:14:58.757Z,5.05
2023-04-15T08:17:25.460Z,6.50
2023-04-15T08:19:52.195Z,5.95
2023-04-15T08:22:20.100Z,5.90
2023-04-15T08:24:47.668Z,7.07
2023-04-15T08:27:14.170Z,4.45
2023-04-15T08:29:40.669Z,3.15
2023-04-15T08:32:07.593Z,4.47
2023-04-15T08:34:34.738Z,4.57
2023-04-15T08:37:01.277Z,5.75
2023-04-15T08:39:28.184Z,3.42
2023-04-15T08:42:07.088Z,4.10
2023-04-15T08:44:34.914Z,5.40
2023-04-15T08:47:02.752Z,2.88
2023-04-15T08:49:30.446Z,6.15
2023-04-15T08:51:59.662Z,3.92
2023-04-15T08:54:27.187Z,11.40
2023-04-15T08:56:54.336Z,9.25
2023-04-15T08:59:24.121Z,4.55
2023-04-15T09:01:53.550Z,3.85
2023-04-15T09:04:20.116Z,5.32
2023-04-15T09:06:46.989Z,4.30
2023-04-15T09:09:14.486Z,3.33
2023-04-15T09:11:42.092Z,3.92
2023-04-15T09:14:08.534Z,6.18
2023-04-15T09:16:57.766Z,6.10
2023-04-15T09:19:25.675Z,5.18
2023-04-15T09:21:59.093Z,7.45
2023-04-15T09:24:33.628Z,5.20
2023-04-15T09:27:00.466Z,7.03
2023-04-15T09:29:27.007Z,4.55
2023-04-15T09:31:53.544Z,6.05
2023-04-15T09:34:21.399Z,7.13
2023-04-15T09:36:49.216Z,5.30
2023-04-15T09:39:16.159Z,3.72
2023-04-15T09:41:43.656Z,4.65
2023-04-15T09:44:26.249Z,4.40
2023-04-15T09:46:52.784Z,6.10
2023-04-15T09:49:20.693Z,3.65
2023-04-15T09:51:58.008Z,3.22
2023-04-15T09:54:37.863Z,3.55
2023-04-15T09:57:09.864Z,4.50
2023-04-15T09:59:36.414Z,4.25
2023-04-15T10:02:06.312Z,5.35
2023-04-15T10:04:36.597Z,4.18
2023-04-15T10:07:05.153Z,3.78
2023-04-15T10:09:33.662Z,4.13
2023-04-15T10:12:01.133Z,2.78
2023-04-15T10:14:32.245Z,7.38
2023-04-15T10:17:01.925Z,3.63
2023-04-15T10:19:32.526Z,3.50
2023-04-15T10:21:59.697Z,4.60
2023-04-15T10:24:27.722Z,2.45
2023-04-15T10:26:55.282Z,4.57
2023-04-15T10:29:23.274Z,5.28
2023-04-15T10:31:50.079Z,3.67
2023-04-15T10:34:18.417Z,5.25
2023-04-15T10:36:46.928Z,2.95
2023-04-15T10:39:42.925Z,3.90
2023-04-15T10:42:10.737Z,2.92
2023-04-15T10:44:38.781Z,2.50
2023-04-15T10:47:12.097Z,2.97
2023-04-15T10:49:46.807Z,3.72
2023-04-15T10:52:15.549Z,2.75
2023-04-15T10:54:42.125Z,6.60
2023-04-15T10:57:14.948Z,3.97
2023-04-15T11:00:06.613Z,3.25
2023-04-15T11:02:40.045Z,3.15
2023-04-15T11:05:07.431Z,4.35
2023-04-15T11:07:38.218Z,2.10
2023-04-15T11:10:13.659Z,2.08
2023-04-15T11:12:41.283Z,3.15
2023-04-15T11:15:30.452Z,3.35
2023-04-15T11:17:58.276Z,3.10
2023-04-15T11:20:25.282Z,2.70
2023-04-15T11:23:08.383Z,3.33
2023-04-15T11:25:40.199Z,3.13
2023-04-15T11:28:07.578Z,4.32
2023-04-15T11:30:35.693Z,3.38
2023-04-15T11:33:07.023Z,4.70
2023-04-15T11:35:33.594Z,2.78
2023-04-15T11:38:08.761Z,2.60
2023-04-15T11:40:35.810Z,2.72
2023-04-15T11:43:09.439Z,6.85
2023-04-15T11:45:37.223Z,1.60
2023-04-15T11:48:13.287Z,2.80
2023-04-15T11:50:43.188Z,1.08
2023-04-15T11:53:11.873Z,2.42
2023-04-15T11:55:52.154Z,2.53
2023-04-15T11:58:23.954Z,2.90
2023-04-15T12:00:55.358Z,1.90
2023-04-15T12:03:39.697Z,1.95
2023-04-15T12:06:13.910Z,2.53
2023-04-15T12:08:55.494Z,1.30
2023-04-15T12:11:30.926Z,1.10
2023-04-15T12:14:02.705Z,4.85
2023-04-15T12:16:29.741Z,1.88
2023-04-15T12:18:58.790Z,2.13
2023-04-15T12:21:27.399Z,2.40
2023-04-15T12:23:55.745Z,2.78
2023-04-15T12:26:31.282Z,3.58
2023-04-15T12:29:02.261Z,3.08
2023-04-15T12:31:29.116Z,2.67
2023-04-15T12:33:56.741Z,1.88
2023-04-15T12:36:23.838Z,1.65
2023-04-15T12:38:50.459Z,1.45
2023-04-15T12:41:16.853Z,2.05
2023-04-15T12:43:49.200Z,4.28
2023-04-15T12:46:15.734Z,1.55
2023-04-15T12:48:42.508Z,2.25
2023-04-15T12:51:09.016Z,3.72
2023-04-15T12:53:35.590Z,3.35
2023-04-15T12:56:02.143Z,2.60
2023-04-15T12:58:28.793Z,2.30
2023-04-15T13:00:55.293Z,3.70
2023-04-15T13:03:21.748Z,3.47
2023-04-15T13:05:48.241Z,2.60
2023-04-15T13:08:14.734Z,1.40
2023-04-15T13:10:42.387Z,3.05
2023-04-15T13:13:08.938Z,1.33
2023-04-15T13:15:35.439Z,2.65
2023-04-15T13:18:02.050Z,1.95
2023-04-15T13:20:28.629Z,3.35
2023-04-15T13:22:55.166Z,3.22
2023-04-15T13:25:21.789Z,7.93
2023-04-15T13:27:48.189Z,2.05
2023-04-15T13:30:14.741Z,2.03
2023-04-15T13:32:41.238Z,3.78
2023-04-15T13:35:08.020Z,2.83
2023-04-15T13:37:34.414Z,2.83
2023-04-15T13:40:01.074Z,2.80
2023-04-15T13:42:27.557Z,1.98
2023-04-15T13:44:54.081Z,1.38
2023-04-15T13:47:20.720Z,1.60
2023-04-15T13:49:47.305Z,2.33
2023-04-15T13:52:13.713Z,2.55
2023-04-15T13:54:40.146Z,1.50
2023-04-15T13:57:06.875Z,3.05
2023-04-15T13:59:34.752Z,0.73
2023-04-15T14:02:01.724Z,1.48
2023-04-15T14:04:28.262Z,3.08
2023-04-15T14:06:54.850Z,1.85
2023-04-15T14:09:26.281Z,1.92
2023-04-15T14:11:52.919Z,1.80
2023-04-15T14:14:19.357Z,1.60
2023-04-15T14:16:45.844Z,1.30
2023-04-15T14:19:12.369Z,2.72
2023-04-15T14:21:38.806Z,1.02
2023-04-15T14:24:05.759Z,3.40
2023-04-15T14:26:32.416Z,3.83
2023-04-15T14:28:58.876Z,1.40
2023-04-15T14:31:25.451Z,2.78
2023-04-15T14:33:51.986Z,3.10
2023-04-15T14:36:18.500Z,3.60
2023-04-15T14:38:45.793Z,3.35
2023-04-15T14:41:13.270Z,5.15
2023-04-15T14:43:39.700Z,6.50
2023-04-15T14:46:06.415Z,6.63
2023-04-15T14:48:32.942Z,3.72
2023-04-15T14:50:59.546Z,4.05
2023-04-15T14:53:26.061Z,2.08
2023-04-15T14:55:52.464Z,3.40
2023-04-15T14:58:18.908Z,3.45
2023-04-15T15:00:45.911Z,3.00
2023-04-15T15:03:13.024Z,4.40
2023-04-15T15:05:41.194Z,2.40
2023-04-15T15:08:09.100Z,4.45
2023-04-15T15:10:49.307Z,3.47
2023-04-15T15:13:17.512Z,5.43
2023-04-15T15:15:44.031Z,2.00
2023-04-15T15:18:10.826Z,1.35
2023-04-15T15:20:37.258Z,2.42
2023-04-15T15:23:03.734Z,2.78
2023-04-15T15:25:30.316Z,2.47
2023-04-15T15:27:57.528Z,5.50
2023-04-15T15:30:24.088Z,6.10
2023-04-15T15:32:50.763Z,5.68
2023-04-15T15:35:17.328Z,4.10
2023-04-15T15:37:45.830Z,1.35
2023-04-15T15:40:12.556Z,3.17
2023-04-15T15:42:38.985Z,1.65
2023-04-15T15:45:05.996Z,1.63
2023-04-15T15:47:32.531Z,5.75
2023-04-15T15:50:00.293Z,2.83
2023-04-15T15:52:27.013Z,4.22
2023-04-15T15:54:53.406Z,4.85
2023-04-15T15:57:19.779Z,3.35
2023-04-15T15:59:46.286Z,2.08
2023-04-15T16:02:14.484Z,5.40
2023-04-15T16:04:43.086Z,2.80
2023-04-15T16:07:11.649Z,3.28
2023-04-15T16:09:40.432Z,1.85
2023-04-15T16:12:06.908Z,5.43
2023-04-15T16:14:33.285Z,6.25
2023-04-15T16:16:59.727Z,2.50
2023-04-15T16:19:26.222Z,6.00
2023-04-15T16:21:53.395Z,2.00
2023-04-15T16:24:19.853Z,7.60
2023-04-15T16:26:46.339Z,4.68
2023-04-15T16:29:12.788Z,3.95
2023-04-15T16:31:39.968Z,4.03
2023-04-15T16:34:06.436Z,3.72
2023-04-15T16:36:34.799Z,2.35
2023-04-15T16:39:01.344Z,3.70
2023-04-15T16:41:28.485Z,10.90
2023-04-15T16:43:56.792Z,3.47
2023-04-15T16:46:23.272Z,3.25
2023-04-15T16:48:49.668Z,3.83
2023-04-15T16:51:16.079Z,3.17
2023-04-15T16:53:42.519Z,8.15
2023-04-15T16:56:09.020Z,2.53
2023-04-15T16:58:35.445Z,8.38
2023-04-15T17:01:02.337Z,2.65
2023-04-15T17:03:28.984Z,1.63
2023-04-15T17:05:55.785Z,3.95
2023-04-15T17:08:22.170Z,3.35
2023-04-15T17:10:49.030Z,4.57
2023-04-15T17:13:15.615Z,1.98
2023-04-15T17:15:42.085Z,4.80
2023-04-15T17:18:09.198Z,6.72
2023-04-15T17:20:35.833Z,2.83
2023-04-15T17:23:02.319Z,4.32
2023-04-15T17:25:30.544Z,1.20
2023-04-15T17:27:56.974Z,3.08
2023-04-15T17:30:23.605Z,5.90
2023-04-15T17:32:51.400Z,2.45
2023-04-15T17:35:18.269Z,4.28
2023-04-15T17:37:46.238Z,4.20
2023-04-15T17:40:13.721Z,3.95
2023-04-15T17:42:41.249Z,4.13
2023-04-15T17:45:08.159Z,1.27
2023-04-15T17:47:34.627Z,5.03
2023-04-15T17:50:01.085Z,3.95
2023-04-15T17:52:27.582Z,2.67
2023-04-15T17:54:54.005Z,3.90
2023-04-15T17:57:20.567Z,3.85
2023-04-15T17:59:47.850Z,1.10
2023-04-15T18:02:15.051Z,2.22
2023-04-15T18:04:41.772Z,3.42
2023-04-15T18:07:08.670Z,3.22
2023-04-15T18:09:36.051Z,3.03
2023-04-15T18:12:04.345Z,3.20
2023-04-15T18:14:34.659Z,0.93
2023-04-15T18:17:04.735Z,1.20
2023-04-15T18:19:31.747Z,1.85
2023-04-15T18:22:00.135Z,1.13
2023-04-15T18:24:26.958Z,2.63
2023-04-15T18:26:53.883Z,3.83
2023-04-15T18:29:20.352Z,2.15
2023-04-15T18:31:46.903Z,4.22
2023-04-15T18:34:13.392Z,3.70
2023-04-15T18:36:39.959Z,2.45
2023-04-15T18:39:06.576Z,2.55
2023-04-15T18:41:33.235Z,1.67
2023-04-15T18:43:59.690Z,1.25
2023-04-15T18:46:26.228Z,3.22
2023-04-15T18:48:52.669Z,3.15
2023-04-15T18:51:19.100Z,1.20
2023-04-15T18:53:45.570Z,3.15
2023-04-15T18:56:12.058Z,3.08
2023-04-15T18:59:10.108Z,2.33
2023-04-15T19:01:24.883Z,2.63
2023-04-15T19:03:51.397Z,1.48
2023-04-15T19:06:17.879Z,2.17
2023-04-15T19:08:44.358Z,3.78
2023-04-15T19:11:10.952Z,5.82
2023-04-15T19:13:37.403Z,2.90
2023-04-15T19:16:04.075Z,2.95
2023-04-15T19:18:30.621Z,3.17
2023-04-15T19:20:57.574Z,3.13
2023-04-15T19:23:24.047Z,2.70
2023-04-15T19:25:50.431Z,2.22
2023-04-15T19:28:16.836Z,4.90
2023-04-15T19:30:43.238Z,4.93
2023-04-15T19:33:09.732Z,6.05
2023-04-15T19:35:38.161Z,2.47
2023-04-15T19:38:04.850Z,2.92
2023-04-15T19:40:31.237Z,1.13
2023-04-15T19:42:57.612Z,5.47
2023-04-15T19:45:24.047Z,2.22
2023-04-15T19:47:50.792Z,3.25
2023-04-15T19:50:17.811Z,4.60
2023-04-15T19:52:44.194Z,2.67
2023-04-15T19:55:10.632Z,4.88
2023-04-15T19:57:36.998Z,2.28
2023-04-15T20:00:03.693Z,4.22
2023-04-15T20:02:32.260Z,1.75
2023-04-15T20:04:58.738Z,2.58
2023-04-15T20:07:25.268Z,4.15
2023-04-15T20:09:52.359Z,3.15
2023-04-15T20:12:51.426Z,3.35
2023-04-15T20:15:07.289Z,5.72
2023-04-15T20:17:34.091Z,5.53
2023-04-15T20:20:00.617Z,3.28
2023-04-15T20:22:27.016Z,3.85
2023-04-15T20:24:53.435Z,6.25
2023-04-15T20:27:22.740Z,4.97
2023-04-15T20:29:49.788Z,4.68
2023-04-15T20:32:17.912Z,2.25
2023-04-15T20:34:44.807Z,4.90
2023-04-15T20:37:12.247Z,3.20
2023-04-15T20:39:40.584Z,3.58
2023-04-15T20:42:10.175Z,5.97
2023-04-15T20:44:38.571Z,7.07
2023-04-15T20:47:08.447Z,4.85
2023-04-15T20:49:36.528Z,4.45
2023-04-15T20:52:07.307Z,6.45
2023-04-15T20:54:34.009Z,3.03
2023-04-15T20:57:01.328Z,5.82
2023-04-15T20:59:28.017Z,7.28
2023-04-15T21:01:56.767Z,3.78
2023-04-15T21:04:24.335Z,5.53
2023-04-15T21:06:52.101Z,3.88
2023-04-15T21:09:18.781Z,4.75
2023-04-15T21:12:00.377Z,2.60
2023-04-15T21:14:27.287Z,3.13
2023-04-15T21:16:53.816Z,11.02
2023-04-15T21:19:20.197Z,5.47
2023-04-15T21:21:46.628Z,3.28
2023-04-15T21:24:13.003Z,3.03
2023-04-15T21:26:39.376Z,2.65
2023-04-15T21:29:07.906Z,2.22
2023-04-15T21:31:36.045Z,3.45
2023-04-15T21:34:02.482Z,3.42
2023-04-15T21:36:28.980Z,4.50
2023-04-15T21:38:55.349Z,4.07
2023-04-15T21:41:21.791Z,3.13
2023-04-15T21:43:48.421Z,5.47
2023-04-15T21:46:22.386Z,2.13
2023-04-15T21:48:52.583Z,2.72
2023-04-15T21:51:19.076Z,4.50
2023-04-15T21:53:45.580Z,3.88
2023-04-15T21:56:12.078Z,5.80
2023-04-15T21:58:38.499Z,4.07
2023-04-15T22:01:05.122Z,3.88
2023-04-15T22:03:33.886Z,3.60
2023-04-15T22:06:01.796Z,3.00
2023-04-15T22:08:28.334Z,1.17
2023-04-15T22:10:55.366Z,2.17
2023-04-15T22:13:21.735Z,7.47
2023-04-15T22:15:48.212Z,6.45
2023-04-15T22:18:14.774Z,3.92
2023-04-15T22:20:41.437Z,4.35
2023-04-15T22:23:08.904Z,2.35
2023-04-15T22:25:38.278Z,3.22
2023-04-15T22:28:09.649Z,2.03
2023-04-15T22:30:41.031Z,2.42
2023-04-15T22:33:09.285Z,5.78
2023-04-15T22:35:37.182Z,5.75
2023-04-15T22:38:04.882Z,3.97
2023-04-15T22:40:31.425Z,3.50
2023-04-15T22:42:57.918Z,4.00
2023-04-15T22:45:24.341Z,4.13
2023-04-15T22:47:50.810Z,2.42
2023-04-15T22:50:17.402Z,2.63
2023-04-15T22:52:46.094Z,2.75
2023-04-15T22:55:12.608Z,4.70
2023-04-15T22:57:39.000Z,4.30
2023-04-15T23:00:06.277Z,5.05
2023-04-15T23:02:33.298Z,1.98
2023-04-15T23:04:59.961Z,5.40
2023-04-15T23:07:28.949Z,2.97
2023-04-15T23:09:55.324Z,4.25
2023-04-15T23:12:21.707Z,4.60
2023-04-15T23:14:48.072Z,2.35
2023-04-15T23:17:14.485Z,3.53
2023-04-15T23:19:41.112Z,10.10
2023-04-15T23:22:10.398Z,5.03
2023-04-15T23:24:36.870Z,6.43
2023-04-15T23:27:03.408Z,6.55
2023-04-15T23:29:29.777Z,2.83
2023-04-15T23:31:56.912Z,5.85
2023-04-15T23:34:23.560Z,3.53
2023-04-15T23:36:49.958Z,4.03
2023-04-15T23:39:16.427Z,2.95
2023-04-15T23:41:42.864Z,5.68
2023-04-15T23:44:09.726Z,3.70
2023-04-15T23:46:36.181Z,3.20
2023-04-15T23:49:02.618Z,7.13
2023-04-15T23:51:29.043Z,2.50
2023-04-15T23:53:55.487Z,3.97
2023-04-15T23:56:21.855Z,2.05
2023-04-15T23:58:48.271Z,3.38
